createdAt,value
2018-04-16T10:51:08.703Z,26.70
2018-04-16T10:53:36.969Z,26.00
2018-04-16T11:04:37.777Z,26.20
2018-04-16T11:07:06.021Z,27.50
2018-04-16T11:09:33.508Z,27.50
2018-04-16T11:12:01.737Z,29.30
2018-04-16T11:14:29.229Z,29.20
2018-04-16T11:16:57.474Z,31.30
2018-04-16T11:19:24.960Z,31.20
2018-04-16T11:21:53.243Z,34.00
2018-04-16T11:24:21.484Z,34.80
2018-04-16T11:26:48.944Z,34.70
2018-04-16T11:29:17.235Z,34.50
2018-04-16T11:31:44.706Z,34.50
2018-04-16T11:34:12.932Z,35.20
2018-04-16T11:36:40.417Z,35.20
2018-04-16T11:39:07.915Z,35.00
2018-04-16T11:41:38.427Z,34.50
2018-04-16T11:44:05.917Z,34.90
2018-04-16T11:46:33.410Z,35.90
2018-04-16T11:49:00.905Z,37.10
2018-04-16T11:51:28.392Z,37.10
2018-04-16T11:53:55.959Z,37.30
2018-04-16T11:56:23.497Z,37.50
2018-04-16T11:58:50.962Z,36.70
2018-04-16T12:01:18.451Z,37.00
2018-04-16T12:03:45.913Z,37.10
2018-04-16T12:06:14.517Z,35.60
2018-04-16T12:08:42.792Z,34.90
2018-04-16T12:11:11.035Z,35.50
2018-04-16T12:13:38.513Z,35.50
2018-04-16T12:16:06.737Z,35.00
2018-04-16T12:18:34.236Z,34.80
2018-04-16T12:21:01.705Z,35.30
2018-04-16T12:23:29.933Z,35.80
2018-04-16T12:25:57.414Z,35.80
2018-04-16T12:28:24.889Z,35.80
2018-04-16T12:30:53.129Z,36.30
2018-04-16T12:33:20.636Z,36.30
2018-04-16T12:35:48.140Z,36.10
2018-04-16T12:38:15.610Z,36.80
2018-04-16T12:40:43.115Z,36.80
2018-04-16T12:43:10.632Z,36.50
2018-04-16T12:45:38.097Z,35.70
2018-04-16T12:48:05.624Z,35.90
2018-04-16T12:50:33.083Z,35.80
2018-04-16T12:53:00.593Z,36.50
2018-04-16T12:55:28.061Z,36.70
2018-04-16T12:57:55.590Z,36.40
2018-04-16T13:00:23.066Z,35.50
2018-04-16T13:02:50.560Z,34.70
2018-04-16T13:05:18.031Z,35.40
2018-04-16T13:07:46.288Z,35.10
2018-04-16T13:10:13.750Z,35.20
2018-04-16T13:12:41.220Z,35.30
2018-04-16T13:15:09.835Z,35.30
2018-04-16T13:17:37.321Z,35.70
2018-04-16T13:20:04.826Z,35.60
2018-04-16T13:22:32.284Z,35.90
2018-04-16T13:25:00.547Z,36.30
2018-04-16T13:27:28.014Z,36.30
2018-04-16T13:29:56.392Z,35.20
2018-04-16T13:32:24.632Z,35.60
2018-04-16T13:34:52.234Z,35.60
2018-04-16T13:37:20.461Z,35.80
2018-04-16T13:39:47.962Z,35.80
2018-04-16T13:42:16.244Z,35.60
2018-04-16T13:44:43.719Z,35.50
2018-04-16T13:47:11.233Z,35.40
2018-04-16T13:49:39.482Z,35.90
2018-04-16T13:52:06.979Z,35.80
2018-04-16T13:54:35.234Z,36.60
2018-04-16T13:57:03.510Z,36.30
2018-04-16T13:59:30.970Z,36.20
2018-04-16T14:01:59.231Z,37.20
2018-04-16T14:04:26.721Z,37.20
2018-04-16T14:06:55.790Z,37.70
2018-04-16T14:09:23.249Z,37.70
2018-04-16T14:11:51.489Z,36.40
2018-04-16T14:14:18.963Z,36.30
2018-04-16T14:16:46.445Z,36.40
2018-04-16T14:19:14.690Z,36.50
2018-04-16T14:21:42.243Z,36.50
2018-04-16T14:24:09.745Z,35.90
2018-04-16T14:26:37.231Z,35.90
2018-04-16T14:29:04.708Z,35.80
2018-04-16T14:31:32.293Z,35.60
2018-04-16T14:33:59.881Z,34.20
2018-04-16T14:36:27.388Z,35.30
2018-04-16T14:38:54.948Z,35.10
2018-04-16T14:41:22.416Z,35.40
2018-04-16T14:43:49.925Z,35.30
2018-04-16T14:46:17.508Z,34.00
2018-04-16T14:48:45.037Z,33.20
2018-04-16T14:51:12.661Z,34.30
2018-04-16T14:53:40.262Z,35.20
2018-04-16T14:56:07.749Z,35.70
2018-04-16T14:58:35.280Z,36.10
2018-04-16T15:01:02.842Z,35.90
2018-04-16T15:03:30.378Z,36.10
2018-04-16T15:05:58.658Z,35.80
2018-04-16T15:08:26.175Z,35.70
2018-04-16T15:10:55.014Z,35.00
2018-04-16T15:13:22.581Z,34.50
2018-04-16T15:15:50.291Z,33.40
2018-04-16T15:18:18.571Z,32.80
2018-04-16T15:20:46.860Z,32.80
2018-04-16T15:23:14.419Z,32.80
2018-04-16T15:25:41.901Z,33.50
2018-04-16T15:28:09.524Z,34.20
2018-04-16T15:30:37.836Z,35.00
2018-04-16T15:33:05.397Z,35.00
2018-04-16T15:35:32.879Z,34.60
2018-04-16T15:38:00.375Z,35.00
2018-04-16T15:40:28.633Z,35.70
2018-04-16T15:42:56.952Z,34.90
2018-04-16T15:45:25.708Z,34.90
2018-04-16T15:47:54.491Z,35.30
2018-04-16T15:50:23.952Z,35.40
2018-04-16T15:52:51.605Z,35.40
2018-04-16T15:55:19.181Z,35.40
2018-04-16T15:57:47.471Z,35.80
2018-04-16T16:00:14.960Z,35.80
2018-04-16T16:02:42.458Z,36.10
2018-04-16T16:05:09.984Z,35.60
2018-04-16T16:07:37.591Z,35.50
2018-04-16T16:10:05.220Z,35.60
2018-04-16T16:12:32.846Z,35.60
2018-04-16T16:15:00.419Z,35.80
2018-04-16T16:17:27.973Z,36.00
2018-04-16T16:19:56.430Z,36.30
2018-04-16T16:22:24.739Z,36.60
2018-04-16T16:24:52.207Z,36.50
2018-04-16T16:27:19.774Z,37.30
2018-04-16T16:29:47.292Z,37.10
2018-04-16T16:32:14.839Z,37.10
2018-04-16T16:34:43.082Z,37.20
2018-04-16T16:37:10.601Z,37.20
2018-04-16T16:39:38.133Z,36.80
2018-04-16T16:42:05.687Z,36.60
2018-04-16T16:44:33.970Z,36.60
2018-04-16T16:47:01.468Z,36.50
2018-04-16T16:49:29.001Z,37.00
2018-04-16T16:51:57.238Z,37.10
2018-04-16T16:54:25.574Z,37.30
2018-04-16T16:56:53.118Z,37.30
2018-04-16T16:59:20.595Z,37.50
2018-04-16T17:01:48.075Z,38.30
2018-04-16T17:04:16.443Z,38.20
2018-04-16T17:06:44.030Z,38.30
2018-04-16T17:09:12.296Z,38.80
2018-04-16T17:11:40.532Z,38.70
2018-04-16T17:14:08.070Z,38.70
2018-04-16T17:16:35.673Z,39.00
2018-04-16T17:19:03.178Z,39.20
2018-04-16T17:21:30.683Z,39.30
2018-04-16T17:23:58.947Z,39.70
2018-04-16T17:26:27.274Z,39.80
2018-04-16T17:28:57.298Z,39.80
2018-04-16T17:31:24.880Z,39.80
2018-04-16T17:33:52.537Z,40.20
2018-04-16T17:36:20.042Z,39.90
2018-04-16T17:38:48.453Z,40.80
2018-04-16T17:41:15.937Z,40.80
2018-04-16T17:43:43.615Z,41.30
2018-04-16T17:46:11.489Z,41.30
2018-04-16T17:48:38.973Z,41.20
2018-04-16T17:51:06.453Z,41.70
2018-04-16T17:53:34.104Z,41.90
2018-04-16T17:56:01.577Z,41.50
2018-04-16T17:58:29.080Z,41.60
2018-04-16T18:00:57.376Z,41.70
2018-04-16T18:03:24.905Z,41.70
2018-04-16T18:05:53.299Z,41.90
2018-04-16T18:08:21.600Z,42.50
2018-04-16T18:10:49.264Z,42.50
2018-04-16T18:13:16.845Z,42.80
2018-04-16T18:15:44.550Z,43.40
2018-04-16T18:18:12.113Z,44.00
2018-04-16T18:20:40.412Z,45.10
2018-04-16T18:23:07.941Z,45.00
2018-04-16T18:25:36.222Z,46.30
2018-04-16T18:28:03.874Z,46.30
2018-04-16T18:30:32.181Z,47.50
2018-04-16T18:32:59.744Z,47.50
2018-04-16T18:35:27.246Z,48.00
2018-04-16T18:37:55.074Z,48.60
2018-04-16T18:40:22.581Z,49.40
2018-04-16T18:42:50.886Z,50.90
2018-04-16T18:45:18.710Z,50.60
2018-04-16T18:47:46.223Z,51.30
2018-04-16T18:50:13.837Z,51.60
2018-04-16T18:52:41.374Z,51.80
2018-04-16T18:55:08.869Z,52.80
2018-04-16T18:57:36.398Z,52.70
2018-04-16T19:00:04.716Z,53.90
2018-04-16T19:02:32.220Z,54.00
2018-04-16T19:04:59.769Z,54.10
2018-04-16T19:07:27.392Z,54.40
2018-04-16T19:09:54.894Z,54.90
2018-04-16T19:12:22.556Z,55.00
2018-04-16T19:14:50.268Z,55.30
2018-04-16T19:17:17.922Z,55.70
2018-04-16T19:19:45.445Z,55.90
2018-04-16T19:22:12.940Z,56.60
2018-04-16T19:24:40.442Z,56.80
2018-04-16T19:27:13.541Z,57.30
2018-04-16T19:29:42.578Z,57.60
2018-04-16T19:32:10.074Z,57.60
2018-04-16T19:34:43.147Z,58.10
2018-04-16T19:37:10.653Z,58.60
2018-04-16T19:39:39.058Z,59.20
2018-04-16T19:42:12.165Z,59.20
2018-04-16T19:44:39.710Z,59.50
2018-04-16T19:47:07.389Z,59.90
2018-04-16T19:49:40.692Z,61.30
2018-04-16T19:52:08.605Z,61.00
2018-04-16T19:54:36.197Z,61.60
2018-04-16T19:57:09.457Z,61.40
2018-04-16T19:59:37.947Z,62.70
2018-04-16T20:02:12.051Z,64.20
2018-04-16T20:04:40.302Z,65.30
2018-04-16T20:07:07.809Z,65.30
2018-04-16T20:09:35.326Z,65.30
2018-04-16T20:12:03.795Z,66.50
2018-04-16T20:14:32.587Z,66.50
2018-04-16T20:17:00.090Z,66.20
2018-04-16T20:19:27.740Z,67.20
2018-04-16T20:21:55.262Z,68.00
2018-04-16T20:24:23.714Z,68.30
2018-04-16T20:26:51.323Z,68.30
2018-04-16T20:29:19.004Z,69.20
2018-04-16T20:31:46.641Z,70.10
2018-04-16T20:34:14.129Z,70.40
2018-04-16T20:36:41.740Z,70.80
2018-04-16T20:39:10.103Z,71.80
2018-04-16T20:41:37.680Z,71.80
2018-04-16T20:44:05.926Z,73.70
2018-04-16T20:46:33.400Z,73.60
2018-04-16T20:49:03.149Z,74.30
2018-04-16T20:51:30.754Z,74.30
2018-04-16T20:53:58.365Z,74.80
2018-04-16T20:56:25.857Z,75.10
2018-04-16T20:58:53.509Z,75.50
2018-04-16T21:01:21.048Z,76.10
2018-04-16T21:03:48.547Z,76.60
2018-04-16T21:06:16.915Z,76.70
2018-04-16T21:08:44.400Z,76.70
2018-04-16T21:11:12.758Z,77.80
2018-04-16T21:13:40.321Z,77.80
2018-04-16T21:16:07.818Z,78.30
2018-04-16T21:18:35.410Z,78.80
2018-04-16T21:21:03.051Z,79.30
2018-04-16T21:23:30.620Z,79.30
2018-04-16T21:25:58.197Z,79.00
2018-04-16T21:28:25.740Z,79.50
2018-04-16T21:30:53.308Z,79.40
2018-04-16T21:33:20.879Z,79.60
2018-04-16T21:35:48.378Z,80.50
2018-04-16T21:38:15.964Z,80.80
2018-04-16T21:40:43.473Z,81.80
2018-04-16T21:43:11.879Z,82.00
2018-04-16T21:45:39.417Z,81.90
2018-04-16T21:48:06.887Z,82.30
2018-04-16T21:50:34.391Z,82.30
2018-04-16T21:53:01.991Z,82.70
2018-04-16T21:55:30.263Z,83.20
2018-04-16T21:57:58.570Z,83.80
2018-04-16T22:00:26.078Z,83.70
2018-04-16T22:02:54.350Z,85.00
2018-04-16T22:05:21.853Z,85.00
2018-04-16T22:07:49.322Z,86.50
2018-04-16T22:10:16.803Z,86.80
2018-04-16T22:12:44.287Z,86.70
2018-04-16T22:15:11.781Z,87.20
2018-04-16T22:17:39.267Z,87.70
2018-04-16T22:20:06.742Z,88.50
2018-04-16T22:22:34.990Z,89.00
2018-04-16T22:25:02.467Z,88.40
2018-04-16T22:27:29.985Z,88.60
2018-04-16T22:29:57.455Z,89.50
2018-04-16T22:32:24.932Z,89.50
2018-04-16T22:34:52.405Z,90.10
2018-04-16T22:37:20.670Z,90.00
2018-04-16T22:39:48.140Z,90.00
2018-04-16T22:44:50.185Z,90.00
2018-04-16T22:47:19.501Z,90.00
2018-04-16T22:49:46.979Z,90.00
2018-04-16T22:52:15.224Z,90.10
2018-04-16T22:54:44.209Z,90.00
2018-04-16T22:57:11.697Z,90.00
2018-04-16T22:59:39.944Z,90.10
2018-04-16T23:02:07.431Z,90.10
2018-04-16T23:04:35.712Z,90.20
2018-04-16T23:07:03.173Z,90.10
2018-04-16T23:09:30.670Z,90.20
2018-04-16T23:11:58.145Z,90.30
2018-04-16T23:14:25.633Z,90.30
2018-04-16T23:16:53.113Z,90.80
2018-04-16T23:19:20.608Z,90.40
2018-04-16T23:21:48.091Z,90.60
2018-04-16T23:24:16.368Z,90.70
2018-04-16T23:26:44.627Z,90.80
2018-04-16T23:29:12.123Z,90.80
2018-04-16T23:31:39.611Z,91.10
2018-04-16T23:34:07.079Z,91.10
2018-04-16T23:36:34.570Z,91.10
2018-04-16T23:39:02.817Z,91.00
2018-04-16T23:41:30.301Z,91.00
2018-04-16T23:43:58.563Z,91.40
2018-04-16T23:46:26.812Z,91.60
2018-04-16T23:48:54.281Z,91.90
2018-04-16T23:51:21.774Z,91.70
2018-04-16T23:53:49.241Z,92.40
2018-04-16T23:56:16.722Z,92.50
2018-04-16T23:58:44.193Z,92.70
